Time;durP1;ratioP1;P1;durP2;ratioP2;P2;SDS_P1;SDS_P2;PMS_P1;PMS_P2;Temp;Humidity;BMP_temperature;BMP_pressure;BME280_temperature;BME280_humidity;BME280_pressure;Samples;Min_cycle;Max_cycle;Signal;HPM_P1;HPM_P2
2022/06/05 00:01:02;;;;;;;3.17;2.98;;;22.10;64.20;;;;;;949300;147;27425;-78
2022/06/05 00:03:38;;;;;;;2.80;2.70;;;22.10;64.20;;;;;;945113;147;27914;-78
2022/06/05 00:06:04;;;;;;;3.20;3.00;;;22.10;64.20;;;;;;951479;147;27398;-77
2022/06/05 00:08:39;;;;;;;4.12;2.92;;;22.10;64.20;;;;;;953411;147;27463;-77
2022/06/05 00:11:07;;;;;;;2.60;2.50;;;22.10;64.10;;;;;;955306;147;27358;-77
2022/06/05 00:13:50;;;;;;;3.22;3.00;;;22.10;64.20;;;;;;956391;147;27329;-77
2022/06/05 00:16:14;;;;;;;2.92;2.72;;;22.10;64.10;;;;;;960081;147;27320;-77
2022/06/05 00:18:42;;;;;;;2.80;2.60;;;22.10;64.00;;;;;;951216;147;27370;-78
2022/06/05 00:21:07;;;;;;;2.83;2.60;;;22.00;64.00;;;;;;957071;147;27438;-78
2022/06/05 00:23:34;;;;;;;3.70;3.02;;;22.10;64.20;;;;;;948990;147;27392;-78
2022/06/05 00:26:13;;;;;;;3.65;3.17;;;22.00;63.40;;;;;;950364;148;27217;-77
2022/06/05 00:28:54;;;;;;;3.30;3.02;;;22.00;64.20;;;;;;947368;148;27327;-77
2022/06/05 00:31:36;;;;;;;2.72;2.52;;;22.00;64.20;;;;;;947583;148;27400;-77
2022/06/05 00:34:03;;;;;;;3.25;3.05;;;22.00;64.20;;;;;;949914;148;27317;-77
2022/06/05 00:36:44;;;;;;;3.35;3.08;;;21.90;64.10;;;;;;947997;148;27352;-77
2022/06/05 00:39:13;;;;;;;2.90;2.70;;;21.90;64.30;;;;;;950106;145;27326;-77
2022/06/05 00:41:52;;;;;;;3.27;3.08;;;21.80;64.30;;;;;;948208;147;27259;-77
2022/06/05 00:44:18;;;;;;;2.72;2.62;;;21.70;64.50;;;;;;946798;148;27409;-78
2022/06/05 00:46:45;;;;;;;3.22;2.92;;;21.60;64.60;;;;;;948526;148;27243;-77
2022/06/05 00:49:12;;;;;;;3.25;2.95;;;21.60;64.80;;;;;;946676;148;27413;-77
2022/06/05 00:51:38;;;;;;;2.90;2.80;;;21.50;64.90;;;;;;950350;145;27266;-78
2022/06/05 00:54:05;;;;;;;3.00;2.80;;;21.50;65.30;;;;;;954089;145;27402;-77
2022/06/05 00:56:31;;;;;;;2.90;2.70;;;21.50;65.40;;;;;;947997;148;27337;-77
2022/06/05 00:58:58;;;;;;;3.10;2.95;;;21.40;65.50;;;;;;951209;148;27246;-77
2022/06/05 01:01:25;;;;;;;2.87;2.72;;;21.40;65.70;;;;;;945077;148;27265;-77
2022/06/05 01:03:51;;;;;;;3.08;2.87;;;21.40;65.80;;;;;;951012;148;27337;-77
2022/06/05 01:06:18;;;;;;;3.20;2.90;;;21.40;65.90;;;;;;948090;145;27866;-77
2022/06/05 01:08:45;;;;;;;3.27;2.70;;;21.40;65.90;;;;;;955923;147;27311;-77
2022/06/05 01:11:12;;;;;;;2.70;2.60;;;21.30;65.90;;;;;;952388;148;27240;-77
2022/06/05 01:13:53;;;;;;;3.10;2.90;;;21.30;65.90;;;;;;942572;147;27362;-77
2022/06/05 01:16:28;;;;;;;2.70;2.60;;;21.30;66.00;;;;;;940912;148;27183;-77
2022/06/05 01:19:01;;;;;;;3.00;2.80;;;21.30;66.00;;;;;;948086;148;27347;-77
2022/06/05 01:21:33;;;;;;;2.98;2.65;;;21.20;66.00;;;;;;948072;148;27326;-77
2022/06/05 01:24:28;;;;;;;3.47;3.17;;;21.10;66.10;;;;;;948052;145;27254;-77
2022/06/05 01:26:57;;;;;;;3.00;2.80;;;21.10;66.30;;;;;;954252;147;27428;-77
2022/06/05 01:29:25;;;;;;;2.67;2.58;;;21.00;66.30;;;;;;960700;147;27340;-77
2022/06/05 01:31:54;;;;;;;3.00;2.80;;;20.90;66.60;;;;;;961273;147;27316;-77
2022/06/05 01:34:20;;;;;;;3.30;3.00;;;20.90;66.80;;;;;;955831;147;27396;-77
2022/06/05 01:36:49;;;;;;;3.17;2.98;;;20.80;66.90;;;;;;954460;147;27371;-77
2022/06/05 01:39:21;;;;;;;3.45;3.25;;;20.80;67.20;;;;;;952742;147;27286;-77
2022/06/05 01:41:48;;;;;;;3.20;3.02;;;20.70;67.40;;;;;;947216;147;27355;-77
2022/06/05 01:44:15;;;;;;;3.20;3.00;;;20.70;67.60;;;;;;953884;147;27493;-77
2022/06/05 01:46:41;;;;;;;3.12;2.92;;;20.70;67.90;;;;;;958532;147;27315;-77
2022/06/05 01:49:17;;;;;;;3.20;3.00;;;20.60;67.90;;;;;;954441;147;27333;-77
2022/06/05 01:51:49;;;;;;;3.10;2.90;;;20.60;68.20;;;;;;954832;147;27755;-77
2022/06/05 01:54:15;;;;;;;3.40;3.20;;;20.60;68.20;;;;;;950195;147;27486;-77
2022/06/05 01:56:45;;;;;;;3.22;3.02;;;20.60;68.40;;;;;;965440;147;27258;-77
2022/06/05 01:59:12;;;;;;;3.20;3.00;;;20.50;68.60;;;;;;955088;147;27474;-77
2022/06/05 02:01:38;;;;;;;3.70;3.40;;;20.50;68.80;;;;;;955739;147;27355;-77
2022/06/05 02:04:20;;;;;;;3.40;3.20;;;20.50;69.10;;;;;;959850;147;27318;-77
2022/06/05 02:06:58;;;;;;;3.70;3.40;;;20.50;69.10;;;;;;959767;147;27341;-77
2022/06/05 02:09:27;;;;;;;3.52;3.33;;;20.50;69.30;;;;;;939684;150;27520;-77
2022/06/05 02:11:54;;;;;;;3.27;3.08;;;20.60;69.50;;;;;;932685;150;27366;-77
2022/06/05 02:14:21;;;;;;;3.42;3.22;;;20.60;69.60;;;;;;938621;150;27434;-77
2022/06/05 02:16:47;;;;;;;3.20;3.00;;;20.60;69.70;;;;;;942755;148;27421;-77
2022/06/05 02:19:14;;;;;;;3.30;3.10;;;20.60;69.70;;;;;;937130;150;27435;-77
2022/06/05 02:21:40;;;;;;;2.98;2.85;;;20.70;69.80;;;;;;937150;150;27372;-77
2022/06/05 02:24:07;;;;;;;2.92;2.72;;;20.70;69.90;;;;;;933263;150;27389;-77
2022/06/05 02:26:34;;;;;;;3.60;3.30;;;20.70;69.90;;;;;;929984;150;27349;-77
2022/06/05 02:29:00;;;;;;;3.55;3.33;;;20.80;70.30;;;;;;934463;150;27362;-77
2022/06/05 02:31:52;;;;;;;3.60;3.30;;;20.80;70.30;;;;;;933222;150;27829;-77
2022/06/05 02:34:31;;;;;;;3.45;3.25;;;20.80;70.10;;;;;;935835;150;27423;-77
2022/06/05 02:37:09;;;;;;;3.20;3.00;;;20.90;70.10;;;;;;934501;150;27360;-77
2022/06/05 02:39:54;;;;;;;3.65;3.33;;;20.80;70.00;;;;;;931350;150;27482;-77
2022/06/05 02:42:35;;;;;;;3.33;3.05;;;20.90;70.00;;;;;;936750;150;27357;-77
2022/06/05 02:45:07;;;;;;;3.52;3.22;;;20.90;70.10;;;;;;935395;150;27355;-77
2022/06/05 02:47:49;;;;;;;3.50;3.30;;;20.90;70.10;;;;;;926518;150;27321;-77
2022/06/05 02:50:22;;;;;;;3.25;3.02;;;20.90;70.30;;;;;;931245;150;27454;-76
2022/06/05 02:52:48;;;;;;;3.55;3.33;;;20.90;70.40;;;;;;930541;150;27270;-76
2022/06/05 02:55:15;;;;;;;3.95;3.75;;;20.80;70.30;;;;;;930245;150;27430;-76
2022/06/05 02:57:41;;;;;;;3.58;3.37;;;20.80;70.40;;;;;;929677;150;27701;-76
2022/06/05 03:00:08;;;;;;;3.72;3.52;;;20.80;70.40;;;;;;933652;150;27462;-76
2022/06/05 03:05:19;;;;;;;3.62;3.42;;;20.80;70.60;;;;;;933171;150;27501;-76
2022/06/05 03:07:46;;;;;;;3.75;3.42;;;20.80;70.60;;;;;;936135;150;27424;-76
2022/06/05 03:10:12;;;;;;;3.77;3.58;;;20.80;70.70;;;;;;934794;150;27453;-76
2022/06/05 03:12:39;;;;;;;3.55;3.35;;;20.80;70.90;;;;;;933842;150;27460;-76
2022/06/05 03:15:06;;;;;;;4.22;3.75;;;20.80;71.40;;;;;;929478;150;27326;-77
2022/06/05 03:17:32;;;;;;;3.52;3.25;;;20.80;71.00;;;;;;935971;150;27805;-76
2022/06/05 03:19:59;;;;;;;3.80;3.60;;;20.80;71.20;;;;;;936429;150;27457;-76
2022/06/05 03:22:26;;;;;;;4.03;3.72;;;20.80;71.20;;;;;;933410;150;27476;-76
2022/06/05 03:24:52;;;;;;;3.85;3.65;;;20.90;71.40;;;;;;934953;150;27287;-76
2022/06/05 03:27:19;;;;;;;3.77;3.58;;;20.90;71.40;;;;;;931174;150;27441;-76
2022/06/05 03:29:45;;;;;;;5.65;3.45;;;21.00;71.40;;;;;;928768;150;27365;-76
2022/06/05 03:32:12;;;;;;;3.70;3.50;;;21.00;71.40;;;;;;931899;150;27371;-76
2022/06/05 03:34:39;;;;;;;3.42;3.12;;;21.00;71.40;;;;;;930302;150;27432;-76
2022/06/05 03:37:05;;;;;;;3.72;3.52;;;21.10;71.40;;;;;;931923;150;27314;-76
2022/06/05 03:39:32;;;;;;;3.80;3.50;;;21.10;71.30;;;;;;928596;150;27458;-76
2022/06/05 03:41:59;;;;;;;3.70;3.42;;;21.20;71.40;;;;;;934569;151;27382;-76
2022/06/05 03:44:25;;;;;;;3.60;3.40;;;21.20;71.30;;;;;;937613;150;27389;-76
2022/06/05 03:46:51;;;;;;;3.83;3.50;;;21.20;71.00;;;;;;933261;150;27820;-76
2022/06/05 03:49:18;;;;;;;4.62;3.45;;;21.30;71.10;;;;;;934161;151;27385;-76
2022/06/05 03:51:47;;;;;;;3.60;3.40;;;21.30;70.90;;;;;;936446;151;27443;-77
2022/06/05 03:54:14;;;;;;;3.65;3.45;;;21.30;71.00;;;;;;933354;150;27435;-76
2022/06/05 03:56:41;;;;;;;3.45;3.25;;;21.40;70.90;;;;;;934794;150;27946;-76
2022/06/05 03:59:07;;;;;;;3.58;3.35;;;21.40;70.70;;;;;;926051;150;27412;-77
2022/06/05 04:01:34;;;;;;;3.35;3.15;;;21.40;70.80;;;;;;932464;150;27683;-77
2022/06/05 04:04:00;;;;;;;3.65;3.40;;;21.50;70.70;;;;;;932770;150;27470;-77
2022/06/05 04:06:29;;;;;;;3.50;3.30;;;21.50;70.60;;;;;;926978;150;27488;-76
2022/06/05 04:08:56;;;;;;;3.60;3.40;;;21.60;70.60;;;;;;935751;150;27402;-77
2022/06/05 04:11:22;;;;;;;3.45;3.25;;;21.60;70.40;;;;;;928256;150;27399;-77
2022/06/05 04:13:49;;;;;;;3.80;3.50;;;21.60;70.40;;;;;;932301;150;27347;-76
2022/06/05 04:16:19;;;;;;;3.50;3.20;;;21.70;70.40;;;;;;930710;150;27443;-77
2022/06/05 04:18:45;;;;;;;3.42;3.15;;;21.70;70.30;;;;;;930127;150;27386;-77
2022/06/05 04:21:11;;;;;;;3.50;3.30;;;21.70;70.30;;;;;;932620;150;27371;-77
2022/06/05 04:23:38;;;;;;;3.45;3.22;;;21.80;70.30;;;;;;936242;150;27474;-77
2022/06/05 04:26:09;;;;;;;3.35;3.08;;;21.80;70.20;;;;;;932317;150;29420;-76
2022/06/05 04:28:34;;;;;;;3.30;3.10;;;21.80;70.10;;;;;;929205;150;27378;-77
2022/06/05 04:31:01;;;;;;;3.30;3.10;;;21.80;70.90;;;;;;930746;150;27375;-77
2022/06/05 04:33:27;;;;;;;3.33;3.12;;;21.80;70.10;;;;;;927995;150;27350;-77
2022/06/05 04:35:54;;;;;;;3.35;3.15;;;21.90;70.10;;;;;;927209;150;27437;-77
2022/06/05 04:38:21;;;;;;;3.52;3.33;;;21.90;70.10;;;;;;929051;150;27390;-77
2022/06/05 04:40:47;;;;;;;3.87;3.58;;;21.90;70.10;;;;;;934839;150;27345;-77
2022/06/05 04:43:14;;;;;;;3.58;3.37;;;21.90;70.30;;;;;;935082;150;27357;-76
2022/06/05 04:45:40;;;;;;;3.62;3.33;;;21.90;70.10;;;;;;933784;150;27460;-77
2022/06/05 04:48:07;;;;;;;3.70;3.50;;;21.90;70.10;;;;;;928560;150;27323;-77
2022/06/05 04:50:34;;;;;;;3.90;3.60;;;21.90;70.10;;;;;;931219;150;27432;-77
2022/06/05 04:53:01;;;;;;;3.60;3.40;;;21.90;70.10;;;;;;928412;151;27370;-77
2022/06/05 04:55:27;;;;;;;3.65;3.45;;;21.90;70.10;;;;;;925731;151;27506;-77
2022/06/05 04:57:53;;;;;;;3.37;3.08;;;21.90;70.10;;;;;;934150;150;27443;-77
2022/06/05 05:00:21;;;;;;;3.17;2.98;;;21.90;70.10;;;;;;938487;150;27395;-77
2022/06/05 05:02:46;;;;;;;3.80;3.50;;;22.00;70.30;;;;;;932969;151;27465;-77
2022/06/05 05:05:13;;;;;;;3.45;3.25;;;22.00;70.60;;;;;;931489;151;27299;-77
2022/06/05 05:07:40;;;;;;;3.50;3.30;;;22.00;70.80;;;;;;936013;150;27868;-76
2022/06/05 05:10:06;;;;;;;3.60;3.40;;;22.10;71.20;;;;;;933125;150;27367;-77
2022/06/05 05:12:33;;;;;;;3.50;3.30;;;22.10;71.40;;;;;;929124;150;27447;-77
2022/06/05 05:14:59;;;;;;;3.37;3.17;;;22.10;71.50;;;;;;928882;150;27374;-77
2022/06/05 05:17:26;;;;;;;3.52;3.33;;;22.20;71.60;;;;;;927721;150;27407;-77
2022/06/05 05:19:53;;;;;;;3.98;3.33;;;22.20;71.60;;;;;;933841;150;27259;-77
2022/06/05 05:22:19;;;;;;;3.65;3.45;;;22.30;71.60;;;;;;933301;150;27417;-77
2022/06/05 05:24:46;;;;;;;3.15;2.95;;;22.30;71.50;;;;;;936275;150;27449;-77
2022/06/05 05:27:12;;;;;;;3.62;3.33;;;22.30;71.40;;;;;;943367;150;27479;-77
2022/06/05 05:29:39;;;;;;;3.37;3.17;;;22.40;71.40;;;;;;932377;150;27320;-77
2022/06/05 05:32:06;;;;;;;3.10;2.90;;;22.40;71.30;;;;;;924609;150;27389;-77
2022/06/05 05:34:32;;;;;;;3.50;3.20;;;22.40;71.30;;;;;;927567;150;27357;-77
2022/06/05 05:36:59;;;;;;;3.27;3.08;;;22.40;71.30;;;;;;935075;150;27846;-77
2022/06/05 05:42:10;;;;;;;3.58;3.37;;;22.50;71.30;;;;;;933499;150;27443;-77
2022/06/05 05:44:43;;;;;;;3.50;3.30;;;22.50;71.40;;;;;;930169;150;27483;-77
2022/06/05 05:47:12;;;;;;;3.20;2.90;;;22.50;71.40;;;;;;933806;150;27362;-77
2022/06/05 05:49:39;;;;;;;3.27;3.08;;;22.60;71.40;;;;;;921623;150;27316;-76
2022/06/05 05:52:05;;;;;;;3.27;3.08;;;22.60;71.60;;;;;;932550;150;27333;-77
2022/06/05 05:54:32;;;;;;;3.30;3.10;;;22.70;71.60;;;;;;929918;150;27348;-77
2022/06/05 05:56:59;;;;;;;5.12;3.47;;;22.70;71.60;;;;;;930063;150;27383;-77
2022/06/05 05:59:25;;;;;;;3.55;3.30;;;22.80;71.60;;;;;;930550;150;27868;-77
2022/06/05 06:01:52;;;;;;;3.42;3.22;;;22.90;71.50;;;;;;936877;150;27441;-77
2022/06/05 06:04:18;;;;;;;3.20;3.00;;;22.90;71.30;;;;;;934893;150;27699;-77
2022/06/05 06:06:45;;;;;;;3.52;3.30;;;22.90;71.20;;;;;;924652;150;27924;-77
2022/06/05 06:09:11;;;;;;;3.60;3.33;;;23.00;71.30;;;;;;928181;151;27768;-77
2022/06/05 06:11:38;;;;;;;3.30;3.10;;;23.00;71.10;;;;;;934541;148;27358;-76
2022/06/05 06:14:05;;;;;;;3.50;3.30;;;23.00;71.10;;;;;;936648;150;27396;-77
2022/06/05 06:16:31;;;;;;;4.15;3.50;;;23.00;71.00;;;;;;943476;148;27284;-77
2022/06/05 06:18:58;;;;;;;3.50;3.30;;;23.00;71.20;;;;;;934360;150;27364;-77
2022/06/05 06:21:24;;;;;;;3.52;3.33;;;23.00;71.00;;;;;;932158;150;27380;-77
2022/06/05 06:23:51;;;;;;;3.52;3.25;;;22.90;71.00;;;;;;928979;150;27454;-77
2022/06/05 06:26:18;;;;;;;4.10;3.70;;;22.90;71.00;;;;;;934219;150;27291;-77
2022/06/05 06:28:44;;;;;;;3.60;3.40;;;22.90;71.10;;;;;;929663;150;27423;-77
2022/06/05 06:31:11;;;;;;;3.95;3.65;;;22.80;71.30;;;;;;932418;150;27510;-77
2022/06/05 06:33:37;;;;;;;3.45;3.25;;;22.70;71.60;;;;;;934853;150;27732;-77
2022/06/05 06:36:04;;;;;;;3.67;3.47;;;22.60;71.60;;;;;;938120;150;27298;-77
2022/06/05 06:38:32;;;;;;;3.95;3.75;;;22.50;72.10;;;;;;927384;151;27339;-77
2022/06/05 06:41:00;;;;;;;4.00;3.40;;;22.40;72.20;;;;;;926337;150;27897;-77
2022/06/05 06:43:27;;;;;;;4.03;3.72;;;22.30;72.50;;;;;;930056;150;27442;-77
2022/06/05 06:45:53;;;;;;;3.85;3.65;;;22.20;72.70;;;;;;929802;151;27293;-77
2022/06/05 06:48:20;;;;;;;3.90;3.70;;;22.10;73.00;;;;;;933079;150;27393;-77
2022/06/05 06:50:47;;;;;;;4.00;3.70;;;21.90;73.40;;;;;;933566;150;27308;-76
2022/06/05 06:53:13;;;;;;;4.33;4.03;;;21.80;74.20;;;;;;935038;151;27330;-76
2022/06/05 06:55:40;;;;;;;4.62;4.15;;;21.70;74.90;;;;;;933843;150;27271;-76
2022/06/05 06:58:06;;;;;;;4.60;4.17;;;21.60;75.20;;;;;;928092;151;27420;-76
2022/06/05 07:00:33;;;;;;;4.35;4.05;;;21.50;75.90;;;;;;927490;151;27386;-76
2022/06/05 07:02:59;;;;;;;4.25;4.03;;;21.40;76.50;;;;;;927709;151;27390;-76
2022/06/05 07:05:26;;;;;;;4.58;4.28;;;21.40;76.70;;;;;;923651;150;27424;-76
2022/06/05 07:07:53;;;;;;;4.60;4.30;;;21.30;77.10;;;;;;924783;151;27418;-76
2022/06/05 07:10:19;;;;;;;4.75;4.42;;;21.30;77.90;;;;;;929438;151;27347;-77
2022/06/05 07:12:47;;;;;;;4.97;4.58;;;21.30;78.40;;;;;;926360;151;27432;-77
2022/06/05 07:15:12;;;;;;;4.87;4.47;;;21.30;79.30;;;;;;933891;150;27425;-77
2022/06/05 07:17:39;;;;;;;4.85;4.50;;;21.30;79.20;;;;;;924826;150;27392;-77
2022/06/05 07:20:06;;;;;;;4.58;4.22;;;21.30;79.60;;;;;;928749;151;27443;-77
2022/06/05 07:22:32;;;;;;;4.50;4.10;;;21.30;79.80;;;;;;926874;150;27425;-77
2022/06/05 07:24:59;;;;;;;4.53;4.15;;;21.40;80.10;;;;;;926910;151;27367;-77
2022/06/05 07:27:26;;;;;;;4.65;4.35;;;21.40;80.30;;;;;;930186;151;27345;-77
2022/06/05 07:29:52;;;;;;;4.78;4.47;;;21.50;80.40;;;;;;927106;151;27943;-76
2022/06/05 07:32:20;;;;;;;4.40;4.00;;;21.50;80.10;;;;;;926867;148;27371;-77
2022/06/05 07:34:45;;;;;;;4.47;4.17;;;21.50;80.00;;;;;;922273;150;27351;-77
2022/06/05 07:37:13;;;;;;;4.55;4.25;;;21.50;79.80;;;;;;923809;151;27896;-77
2022/06/05 07:39:38;;;;;;;4.53;4.22;;;21.50;79.60;;;;;;924664;151;27347;-77
2022/06/05 07:42:05;;;;;;;5.12;4.72;;;21.50;79.70;;;;;;927724;151;27456;-77
2022/06/05 07:44:32;;;;;;;4.85;4.45;;;21.50;79.90;;;;;;926679;151;27487;-77
2022/06/05 07:46:58;;;;;;;4.17;3.92;;;21.50;80.30;;;;;;922544;150;27360;-76
2022/06/05 07:49:25;;;;;;;6.30;4.50;;;21.50;80.60;;;;;;923425;150;27345;-77
2022/06/05 07:54:37;;;;;;;4.10;3.80;;;21.70;80.90;;;;;;924992;150;27460;-77
2022/06/05 07:57:09;;;;;;;4.45;4.15;;;21.80;80.50;;;;;;929369;150;27508;-77
2022/06/05 07:59:35;;;;;;;4.40;4.10;;;22.00;80.00;;;;;;924923;150;27439;-76
2022/06/05 08:02:03;;;;;;;5.00;4.60;;;22.10;79.50;;;;;;921661;151;27459;-77
2022/06/05 08:04:29;;;;;;;4.67;4.28;;;22.10;79.10;;;;;;923083;150;27396;-77
2022/06/05 08:06:55;;;;;;;4.40;4.00;;;22.20;78.90;;;;;;930104;150;27456;-77
2022/06/05 08:09:22;;;;;;;3.85;3.60;;;22.20;78.50;;;;;;925092;150;28096;-77
2022/06/05 08:11:48;;;;;;;4.37;3.98;;;22.30;78.50;;;;;;921328;150;27486;-77
2022/06/05 08:14:15;;;;;;;4.40;4.10;;;22.30;78.50;;;;;;922369;150;27379;-77
2022/06/05 08:16:43;;;;;;;4.50;4.12;;;22.30;78.50;;;;;;923081;150;27435;-77
2022/06/05 08:19:14;;;;;;;4.05;3.85;;;22.40;78.60;;;;;;923030;150;27436;-77
2022/06/05 08:21:40;;;;;;;4.22;3.92;;;22.50;78.70;;;;;;924304;150;27388;-77
2022/06/05 08:24:07;;;;;;;4.50;4.20;;;22.50;78.70;;;;;;924630;150;27364;-77
2022/06/05 08:26:33;;;;;;;4.30;4.00;;;22.60;78.80;;;;;;924598;150;27363;-77
2022/06/05 08:29:00;;;;;;;4.15;3.85;;;22.70;78.60;;;;;;924330;150;27515;-77
2022/06/05 08:31:29;;;;;;;3.98;3.60;;;22.80;78.30;;;;;;930382;150;27435;-77
2022/06/05 08:33:53;;;;;;;4.08;3.77;;;22.90;78.20;;;;;;926670;150;27351;-77
2022/06/05 08:36:20;;;;;;;3.80;3.58;;;23.00;78.00;;;;;;928199;150;27785;-77
2022/06/05 08:41:40;;;;;;;3.60;3.40;;;23.10;77.90;;;;;;965365;145;37650;-76
2022/06/05 08:44:18;;;;;;;4.03;3.83;;;23.30;77.70;;;;;;957458;146;27280;-75
2022/06/05 08:46:44;;;;;;;3.72;3.50;;;23.50;78.00;;;;;;953776;146;27672;-75
2022/06/05 08:49:14;;;;;;;4.20;3.90;;;23.60;76.80;;;;;;952785;146;27343;-75
2022/06/05 08:51:47;;;;;;;4.05;3.72;;;23.60;76.40;;;;;;955868;148;27295;-75
2022/06/05 08:54:22;;;;;;;3.92;3.62;;;23.70;75.70;;;;;;958330;148;27703;-75
2022/06/05 08:57:01;;;;;;;4.05;3.75;;;23.80;75.10;;;;;;955348;148;27343;-75
2022/06/05 08:59:27;;;;;;;3.52;3.22;;;23.90;74.70;;;;;;949863;148;27400;-75
2022/06/05 09:01:54;;;;;;;3.85;3.60;;;23.90;74.50;;;;;;953928;149;27325;-75
2022/06/05 09:04:23;;;;;;;3.65;3.45;;;23.90;74.30;;;;;;951831;148;27384;-75
2022/06/05 09:06:55;;;;;;;3.33;3.05;;;23.90;74.30;;;;;;959272;146;27315;-75
2022/06/05 09:09:28;;;;;;;3.45;3.25;;;24.00;74.30;;;;;;953424;148;27337;-75
2022/06/05 09:12:00;;;;;;;3.92;3.60;;;24.00;73.90;;;;;;934528;152;27403;-76
2022/06/05 09:14:39;;;;;;;3.55;3.35;;;24.10;73.70;;;;;;953725;146;27429;-75
2022/06/05 09:17:11;;;;;;;4.10;3.80;;;24.10;73.60;;;;;;954127;146;27348;-75
2022/06/05 09:19:38;;;;;;;2.95;2.75;;;24.10;73.70;;;;;;952735;149;27316;-76
2022/06/05 09:22:19;;;;;;;3.50;3.30;;;24.20;73.80;;;;;;955092;149;27330;-76
2022/06/05 09:24:55;;;;;;;3.95;3.52;;;24.30;73.80;;;;;;953804;149;27344;-75
2022/06/05 09:27:33;;;;;;;3.40;3.20;;;24.30;73.50;;;;;;950302;148;27975;-75
2022/06/05 09:30:00;;;;;;;3.95;3.30;;;24.40;73.60;;;;;;954200;149;27411;-76
2022/06/05 09:32:33;;;;;;;3.27;3.08;;;24.50;73.60;;;;;;952206;149;27740;-75
2022/06/05 09:34:59;;;;;;;3.75;3.55;;;24.60;73.50;;;;;;952209;146;27301;-76
2022/06/05 09:37:26;;;;;;;3.52;3.33;;;24.70;73.20;;;;;;950272;149;27312;-75
2022/06/05 09:40:04;;;;;;;3.85;3.58;;;24.80;73.10;;;;;;953830;146;27400;-76
2022/06/05 09:42:39;;;;;;;3.92;3.62;;;24.90;72.60;;;;;;946774;150;27907;-77
2022/06/05 09:45:30;;;;;;;3.30;3.10;;;25.00;72.00;;;;;;902447;154;27455;-77
2022/06/05 09:48:06;;;;;;;3.35;3.15;;;25.00;71.40;;;;;;946430;149;27329;-77
2022/06/05 09:50:32;;;;;;;4.25;3.70;;;25.00;71.00;;;;;;944500;150;27371;-77
2022/06/05 09:52:59;;;;;;;3.55;3.35;;;25.10;71.00;;;;;;946574;147;27269;-77
2022/06/05 09:55:56;;;;;;;4.25;3.85;;;25.10;70.70;;;;;;946212;147;28006;-77
2022/06/05 09:58:43;;;;;;;3.42;3.22;;;25.10;70.80;;;;;;915204;152;27445;-77
2022/06/05 10:01:31;;;;;;;3.35;3.15;;;25.10;70.60;;;;;;928628;150;27348;-77
2022/06/05 10:03:57;;;;;;;3.40;3.20;;;25.10;70.90;;;;;;928584;153;27357;-77
2022/06/05 10:06:39;;;;;;;3.70;3.40;;;25.10;71.10;;;;;;928543;152;27392;-77
2022/06/05 10:09:05;;;;;;;3.55;3.35;;;25.20;71.20;;;;;;934881;148;27489;-76
2022/06/05 10:11:38;;;;;;;3.47;3.05;;;25.20;71.20;;;;;;938277;148;27339;-77
2022/06/05 10:14:19;;;;;;;3.50;3.20;;;25.30;71.20;;;;;;933229;152;27386;-77
2022/06/05 10:17:04;;;;;;;3.15;2.95;;;25.40;70.90;;;;;;941701;148;27313;-77
2022/06/05 10:19:52;;;;;;;3.55;3.35;;;25.50;70.50;;;;;;936619;151;27311;-76
2022/06/05 10:22:21;;;;;;;3.45;3.15;;;25.60;70.50;;;;;;940648;148;27707;-77
2022/06/05 10:24:48;;;;;;;3.62;3.42;;;25.70;70.10;;;;;;932924;148;27319;-77
2022/06/05 10:27:15;;;;;;;3.30;3.10;;;25.80;69.70;;;;;;921885;151;27472;-77
2022/06/05 10:29:47;;;;;;;3.27;3.08;;;25.90;69.50;;;;;;946962;147;27396;-77
2022/06/05 10:32:51;;;;;;;3.85;3.58;;;26.10;69.40;;;;;;934475;149;27406;-77
2022/06/05 10:35:17;;;;;;;3.10;2.90;;;26.20;69.30;;;;;;941932;147;27299;-76
2022/06/05 10:37:49;;;;;;;3.47;3.20;;;26.40;69.40;;;;;;944698;147;27332;-77
2022/06/05 10:40:31;;;;;;;3.35;3.15;;;26.60;70.00;;;;;;931820;149;27397;-77
2022/06/05 10:43:01;;;;;;;3.25;3.05;;;26.90;70.10;;;;;;950115;147;27393;-77
2022/06/05 10:45:34;;;;;;;3.67;3.47;;;27.20;70.00;;;;;;939207;151;27475;-77
2022/06/05 10:48:05;;;;;;;3.72;3.50;;;27.50;68.90;;;;;;946300;148;27375;-77
2022/06/05 10:50:35;;;;;;;4.03;3.65;;;27.90;68.20;;;;;;939152;149;27448;-77
2022/06/05 10:53:04;;;;;;;3.72;3.50;;;28.20;67.20;;;;;;945122;148;27291;-77
2022/06/05 10:55:55;;;;;;;3.60;3.30;;;28.50;66.30;;;;;;942259;148;27325;-78
2022/06/05 10:58:27;;;;;;;2.83;2.72;;;28.70;65.30;;;;;;940830;149;27326;-78
2022/06/05 11:01:03;;;;;;;2.80;2.70;;;29.00;65.10;;;;;;937500;148;27351;-78
2022/06/05 11:03:38;;;;;;;3.40;3.20;;;29.30;64.60;;;;;;955611;146;27292;-78
2022/06/05 11:06:27;;;;;;;3.12;2.92;;;29.60;64.30;;;;;;929054;152;27484;-78
2022/06/05 11:09:05;;;;;;;3.17;2.98;;;29.80;63.30;;;;;;958461;146;27293;-78
2022/06/05 11:14:25;;;;;;;3.08;2.77;;;30.40;61.50;;;;;;947724;147;27355;-78
2022/06/05 11:17:00;;;;;;;3.50;3.30;;;30.70;61.30;;;;;;940550;151;27362;-78
2022/06/05 11:19:48;;;;;;;3.20;3.00;;;30.90;60.20;;;;;;940850;148;27440;-78
2022/06/05 11:22:15;;;;;;;3.15;2.95;;;31.10;59.80;;;;;;952360;147;27328;-79
2022/06/05 11:24:48;;;;;;;3.45;2.70;;;31.30;59.40;;;;;;951339;145;27943;-78
2022/06/05 11:27:26;;;;;;;3.85;2.75;;;31.40;58.80;;;;;;953240;147;27639;-78
2022/06/05 11:29:53;;;;;;;3.05;2.80;;;31.50;57.90;;;;;;950266;147;27430;-78
2022/06/05 11:32:38;;;;;;;2.70;2.60;;;31.60;57.40;;;;;;943845;148;27314;-78
2022/06/05 11:35:25;;;;;;;2.80;2.60;;;31.60;56.70;;;;;;953201;145;28066;-78
2022/06/05 11:38:13;;;;;;;2.60;2.40;;;31.60;56.70;;;;;;923089;151;27367;-78
2022/06/05 11:40:43;;;;;;;2.87;2.67;;;31.60;56.70;;;;;;951189;148;27600;-78
2022/06/05 11:43:09;;;;;;;2.98;2.67;;;31.70;56.70;;;;;;923905;148;27486;-78
2022/06/05 11:45:45;;;;;;;2.72;2.52;;;31.70;56.30;;;;;;959329;145;27339;-78
2022/06/05 11:48:30;;;;;;;2.52;2.42;;;31.80;56.20;;;;;;949813;148;27349;-78
2022/06/05 11:50:59;;;;;;;2.98;2.77;;;31.80;55.90;;;;;;953163;149;27398;-78
2022/06/05 11:53:57;;;;;;;2.80;2.60;;;31.90;55.70;;;;;;952242;147;27441;-78
2022/06/05 11:56:30;;;;;;;3.15;2.52;;;32.00;55.50;;;;;;957150;148;27349;-78
2022/06/05 11:59:11;;;;;;;4.30;2.67;;;32.00;55.50;;;;;;954725;149;27337;-78
2022/06/05 12:01:43;;;;;;;2.55;2.45;;;32.00;55.90;;;;;;959135;146;27384;-78
2022/06/05 12:04:17;;;;;;;2.72;2.52;;;32.10;55.00;;;;;;954910;149;27311;-78
2022/06/05 12:06:48;;;;;;;2.60;2.37;;;32.10;54.60;;;;;;954206;148;27653;-78
2022/06/05 12:09:16;;;;;;;3.22;3.02;;;32.10;54.60;;;;;;952293;149;28118;-78
2022/06/05 12:11:49;;;;;;;2.60;2.50;;;32.10;54.00;;;;;;955988;146;27408;-78
2022/06/05 12:14:21;;;;;;;2.75;2.58;;;32.00;53.90;;;;;;953470;146;27391;-78
2022/06/05 12:17:13;;;;;;;3.27;3.00;;;32.00;54.20;;;;;;953448;149;27388;-78
2022/06/05 12:19:45;;;;;;;2.75;2.55;;;32.00;54.20;;;;;;954763;147;27376;-78
2022/06/05 12:22:14;;;;;;;2.45;2.27;;;32.00;54.30;;;;;;958029;149;27350;-78
2022/06/05 12:24:47;;;;;;;3.22;2.77;;;32.10;54.10;;;;;;957246;146;27812;-78
2022/06/05 12:27:15;;;;;;;2.45;2.30;;;32.10;53.80;;;;;;956844;146;27359;-78
2022/06/05 12:29:58;;;;;;;2.60;2.40;;;32.20;54.20;;;;;;953579;146;27332;-78
2022/06/05 12:32:39;;;;;;;2.47;2.37;;;32.20;53.60;;;;;;915176;153;27458;-78
2022/06/05 12:35:12;;;;;;;2.65;2.45;;;32.20;53.40;;;;;;910790;153;27481;-78
2022/06/05 12:37:39;;;;;;;3.00;2.80;;;32.20;53.40;;;;;;931767;149;27305;-78
2022/06/05 12:40:05;;;;;;;2.72;2.52;;;32.10;53.20;;;;;;954254;146;27290;-77
2022/06/05 12:42:35;;;;;;;2.80;2.60;;;32.10;53.00;;;;;;958728;146;27429;-78
2022/06/05 12:45:04;;;;;;;2.50;2.40;;;32.10;53.00;;;;;;955161;146;27283;-78
2022/06/05 12:47:40;;;;;;;2.52;2.42;;;32.00;52.90;;;;;;953255;146;27409;-77
2022/06/05 12:50:15;;;;;;;3.02;2.83;;;31.90;52.80;;;;;;955679;146;27337;-78
2022/06/05 12:52:42;;;;;;;3.15;2.80;;;31.80;52.60;;;;;;955611;146;27352;-77
2022/06/05 12:55:14;;;;;;;3.05;2.80;;;31.70;52.60;;;;;;955298;148;27280;-77
2022/06/05 12:57:46;;;;;;;2.60;2.47;;;31.50;52.50;;;;;;954616;149;27415;-77
2022/06/05 13:00:31;;;;;;;2.92;2.70;;;31.40;52.60;;;;;;954388;146;27319;-77
2022/06/05 13:03:00;;;;;;;2.90;2.70;;;31.20;52.50;;;;;;957917;149;27392;-78
2022/06/05 13:05:42;;;;;;;2.70;2.50;;;30.90;52.60;;;;;;950305;146;27719;-77
2022/06/05 13:08:08;;;;;;;3.12;2.87;;;30.70;52.80;;;;;;943615;149;27381;-77
2022/06/05 13:10:35;;;;;;;2.77;2.60;;;30.50;53.20;;;;;;948443;149;27291;-77
2022/06/05 13:13:29;;;;;;;2.90;2.70;;;30.30;53.40;;;;;;955666;149;27288;-77
2022/06/05 13:15:55;;;;;;;3.27;2.60;;;30.10;53.40;;;;;;951672;149;27311;-77
2022/06/05 13:18:25;;;;;;;3.20;2.30;;;30.00;53.60;;;;;;956647;146;27299;-77